Time;durP1;ratioP1;P1;durP2;ratioP2;P2;SDS_P1;SDS_P2;PMS_P1;PMS_P2;Temp;Humidity;BMP_temperature;BMP_pressure;BME280_temperature;BME280_humidity;BME280_pressure;Samples;Min_cycle;Max_cycle;Signal;HPM_P1;HPM_P2
2021/01/21 00:02:22;;;;;;;4.70;3.10;;;10.90;99.90;;;9.55;100.00;95095.56;5035434;28;20287;-76
2021/01/21 00:05:09;;;;;;;5.23;2.90;;;10.90;99.90;;;9.52;100.00;95059.78;5042553;28;20316;-77
2021/01/21 00:07:54;;;;;;;3.73;3.00;;;10.80;99.90;;;9.81;100.00;95020.31;5035101;28;20731;-76
2021/01/21 00:10:43;;;;;;;5.40;3.50;;;10.80;99.90;;;9.88;100.00;95079.75;5039563;28;20234;-76
2021/01/21 00:13:29;;;;;;;6.00;3.67;;;10.80;99.90;;;9.72;100.00;95118.63;5047764;28;20202;-76
2021/01/21 00:16:13;;;;;;;6.43;3.13;;;10.80;99.90;;;9.80;100.00;95113.38;5041413;28;20231;-76
2021/01/21 00:18:59;;;;;;;4.80;3.33;;;10.80;99.90;;;9.69;100.00;95142.97;5044570;28;20706;-76
2021/01/21 00:21:44;;;;;;;3.50;3.20;;;10.80;99.90;;;9.79;100.00;95093.72;5044817;28;20290;-76
2021/01/21 00:24:29;;;;;;;4.80;3.07;;;10.80;99.90;;;9.78;100.00;95107.59;5033162;28;20226;-75
2021/01/21 00:27:15;;;;;;;5.33;3.60;;;10.80;99.90;;;9.69;100.00;95130.09;5035137;28;20249;-76
2021/01/21 00:30:00;;;;;;;5.40;3.03;;;10.80;99.90;;;9.71;100.00;95128.13;5038716;28;20562;-74
2021/01/21 00:32:46;;;;;;;5.30;3.20;;;10.80;99.90;;;9.69;100.00;95130.09;5039931;28;20199;-76
2021/01/21 00:35:31;;;;;;;4.80;3.33;;;10.80;99.90;;;9.78;100.00;95098.06;5039617;28;20203;-75
2021/01/21 00:38:16;;;;;;;5.27;2.93;;;10.80;99.90;;;9.77;100.00;95116.31;5041742;28;20210;-76
2021/01/21 00:41:01;;;;;;;3.97;2.60;;;10.80;99.90;;;9.63;100.00;95113.53;5037554;28;20226;-77
2021/01/21 00:43:47;;;;;;;4.77;3.00;;;10.80;99.90;;;9.56;100.00;95110.03;5041583;28;20289;-75
2021/01/21 00:46:32;;;;;;;4.53;2.67;;;10.80;99.90;;;9.70;100.00;95081.88;5042760;28;20287;-75
2021/01/21 00:49:17;;;;;;;3.70;3.17;;;10.80;99.90;;;9.70;100.00;95072.38;5041255;28;20222;-76
2021/01/21 00:52:03;;;;;;;3.33;3.10;;;10.80;99.90;;;9.76;100.00;95088.94;5041822;28;20230;-76
2021/01/21 00:54:49;;;;;;;6.60;3.40;;;10.80;99.90;;;9.78;100.00;95094.69;5050317;28;20249;-76
2021/01/21 00:57:34;;;;;;;3.60;3.30;;;10.80;99.90;;;9.84;100.00;95094.78;5038460;28;20214;-76
2021/01/21 01:00:21;;;;;;;5.27;3.30;;;10.80;99.90;;;9.74;100.00;95125.19;5032277;28;20235;-77
2021/01/21 01:03:07;;;;;;;3.37;3.07;;;10.80;99.90;;;9.69;100.00;95132.66;5040714;28;20210;-76
2021/01/21 01:05:52;;;;;;;7.00;3.50;;;10.80;99.90;;;9.93;100.00;95110.19;5037352;28;20707;-76
2021/01/21 01:08:37;;;;;;;3.50;2.80;;;10.90;99.90;;;9.91;100.00;95136.16;5034231;28;20294;-77
2021/01/21 01:11:22;;;;;;;4.97;3.00;;;10.90;99.90;;;9.80;100.00;95154.66;5042910;28;20293;-76
2021/01/21 01:14:08;;;;;;;4.53;2.90;;;10.90;99.90;;;9.76;100.00;95151.63;5036297;28;20239;-76
2021/01/21 01:16:54;;;;;;;5.20;3.00;;;10.90;99.90;;;9.63;100.00;95146.25;5051262;28;20580;-75
2021/01/21 01:19:39;;;;;;;5.33;3.00;;;10.90;99.90;;;9.70;100.00;95111.06;5050320;28;20238;-76
2021/01/21 01:22:25;;;;;;;3.23;2.60;;;10.90;99.90;;;9.70;100.00;95103.31;5061866;28;20202;-76
2021/01/21 01:25:11;;;;;;;3.70;2.50;;;10.90;99.90;;;9.78;100.00;95092.91;5052067;28;20223;-76
2021/01/21 01:27:57;;;;;;;2.80;2.53;;;10.90;99.90;;;9.91;100.00;95109.56;5047660;28;20253;-75
2021/01/21 01:30:42;;;;;;;3.37;2.70;;;10.90;99.90;;;10.03;100.00;95149.44;5033683;28;20261;-77
2021/01/21 01:33:28;;;;;;;3.33;2.77;;;10.90;99.90;;;9.92;100.00;95204.06;5043094;28;20275;-76
2021/01/21 01:36:13;;;;;;;3.13;2.83;;;10.90;99.90;;;9.97;100.00;95241.28;5038639;28;20294;-76
2021/01/21 01:38:58;;;;;;;3.47;2.73;;;10.90;99.90;;;9.92;100.00;95259.06;5037535;28;20285;-77
2021/01/21 01:41:43;;;;;;;4.50;3.27;;;10.90;99.90;;;10.09;100.00;95251.97;5040781;28;20223;-76
2021/01/21 01:44:28;;;;;;;4.30;2.70;;;10.90;99.90;;;10.08;100.00;95291.66;5048261;28;20350;-77
2021/01/21 01:47:15;;;;;;;5.23;3.00;;;10.90;99.90;;;10.14;100.00;95282.44;5043616;28;20199;-75
2021/01/21 01:50:02;;;;;;;4.43;3.27;;;10.90;99.90;;;10.32;100.00;95292.47;5054161;28;20211;-76
2021/01/21 01:52:47;;;;;;;3.40;2.87;;;10.90;99.90;;;10.33;100.00;95343.13;5048639;28;20261;-77
2021/01/21 01:55:33;;;;;;;4.37;3.10;;;11.10;99.90;;;10.36;100.00;95340.22;5041009;28;20203;-76
2021/01/21 01:58:19;;;;;;;4.80;2.87;;;11.00;99.90;;;10.47;100.00;95365.63;5035389;28;20255;-76
2021/01/21 02:01:04;;;;;;;4.37;2.97;;;11.10;99.90;;;10.40;100.00;95376.84;5037250;28;20214;-76
2021/01/21 02:03:49;;;;;;;3.30;3.00;;;11.10;99.90;;;10.56;100.00;95347.50;5043204;28;20199;-76
2021/01/21 02:06:35;;;;;;;3.37;2.50;;;11.20;99.90;;;10.56;100.00;95388.81;5045413;28;20310;-76
2021/01/21 02:09:22;;;;;;;4.03;3.00;;;11.20;99.90;;;10.62;100.00;95419.13;5040783;28;20269;-76
2021/01/21 02:12:26;;;;;;;4.00;2.67;;;11.20;99.90;;;10.63;100.00;95447.38;5048952;28;20229;-76
2021/01/21 02:15:29;;;;;;;4.33;2.83;;;11.20;99.90;;;9.66;100.00;95564.59;5037436;28;20203;-77
2021/01/21 02:18:23;;;;;;;4.40;3.10;;;11.30;99.90;;;8.34;100.00;95434.97;5052162;28;20625;-75
2021/01/21 02:21:48;;;;;;;3.80;2.83;;;11.30;99.90;;;8.43;100.00;95099.34;5039437;28;20266;-75
2021/01/21 02:25:10;;;;;;;3.87;3.17;;;11.30;99.90;;;9.01;100.00;94789.84;5036721;28;20311;-76
2021/01/21 02:28:32;;;;;;;3.30;2.97;;;11.20;99.90;;;9.57;100.00;94700.84;5039526;28;20210;-75
2021/01/21 02:31:35;;;;;;;3.03;2.70;;;11.10;99.90;;;9.52;100.00;94726.34;5037728;28;20285;-75
2021/01/21 02:34:28;;;;;;;4.43;3.03;;;11.00;99.90;;;9.66;100.00;94749.50;5040982;28;20249;-75
2021/01/21 02:37:19;;;;;;;5.43;3.23;;;10.90;99.90;;;9.77;100.00;94760.31;5050431;28;20196;-76
2021/01/21 02:40:07;;;;;;;4.40;3.00;;;10.80;99.90;;;9.92;100.00;94740.41;5038787;28;20622;-76
2021/01/21 02:42:52;;;;;;;3.37;2.63;;;10.80;99.90;;;10.03;100.00;94780.41;5047105;28;20206;-76
2021/01/21 02:45:38;;;;;;;3.40;3.10;;;10.70;99.90;;;9.30;100.00;94853.47;5034571;28;20303;-76
2021/01/21 02:48:23;;;;;;;4.97;2.83;;;10.70;99.90;;;9.33;100.00;94730.34;5040685;28;20617;-76
2021/01/21 02:51:22;;;;;;;3.10;2.80;;;10.60;99.90;;;9.57;100.00;94616.53;5042108;28;20225;-76
2021/01/21 02:54:26;;;;;;;3.30;2.73;;;10.60;99.90;;;9.59;100.00;94588.75;5054072;28;20206;-76
2021/01/21 02:57:21;;;;;;;4.70;2.87;;;10.60;99.90;;;9.39;100.00;94604.09;5040915;28;20206;-76
2021/01/21 03:00:10;;;;;;;2.93;2.73;;;10.60;99.90;;;9.81;100.00;94467.47;5053883;28;20230;-76
2021/01/21 03:02:59;;;;;;;3.43;2.90;;;10.60;99.90;;;10.12;100.00;94441.19;5054784;28;20211;-77
2021/01/21 03:05:51;;;;;;;2.50;2.40;;;10.60;99.90;;;10.46;100.00;94467.88;5053755;28;20246;-77
2021/01/21 03:08:38;;;;;;;3.43;2.83;;;10.60;99.90;;;10.58;100.00;94534.47;5034918;28;20331;-77
2021/01/21 03:11:23;;;;;;;4.40;2.97;;;10.60;99.90;;;10.76;100.00;94593.31;5051272;28;20226;-77
2021/01/21 03:14:08;;;;;;;4.07;2.80;;;10.60;99.90;;;10.75;100.00;94679.56;5038685;28;20273;-76
2021/01/21 03:16:56;;;;;;;3.07;2.67;;;10.60;99.90;;;10.67;100.00;94771.75;5050576;28;20226;-77
2021/01/21 03:19:41;;;;;;;4.63;2.90;;;10.60;99.90;;;10.67;100.00;94750.28;5040285;28;20623;-76
2021/01/21 03:22:26;;;;;;;4.30;2.67;;;10.70;99.90;;;9.49;100.00;94761.03;5049433;28;20219;-77
2021/01/21 03:25:13;;;;;;;4.10;2.60;;;10.80;99.90;;;10.24;100.00;94518.06;5034820;28;20227;-75
2021/01/21 03:27:58;;;;;;;2.53;2.37;;;10.80;99.90;;;10.66;100.00;94487.81;5037836;28;20220;-75
2021/01/21 03:30:43;;;;;;;2.50;2.27;;;10.80;99.90;;;10.81;100.00;94570.28;5048072;28;20253;-74
2021/01/21 03:33:28;;;;;;;2.80;2.60;;;10.90;99.90;;;10.80;100.00;94661.69;5035090;28;20207;-77
2021/01/21 03:36:13;;;;;;;3.83;2.47;;;10.90;99.90;;;10.89;100.00;94709.63;5036558;28;20564;-76
2021/01/21 03:38:59;;;;;;;2.70;2.50;;;11.00;99.90;;;11.05;100.00;94736.94;5041733;28;20218;-76
2021/01/21 03:41:45;;;;;;;3.10;2.60;;;11.10;99.90;;;11.21;100.00;94787.50;5038082;28;20264;-76
2021/01/21 03:44:30;;;;;;;3.27;2.60;;;11.10;99.90;;;11.32;100.00;94871.50;5043696;28;20203;-77
2021/01/21 03:47:15;;;;;;;2.70;2.43;;;11.20;99.90;;;11.28;100.00;94968.53;5040520;28;21035;-76
2021/01/21 03:50:00;;;;;;;3.60;2.40;;;11.30;99.90;;;11.35;100.00;94971.97;5037959;28;20653;-76
2021/01/21 03:52:45;;;;;;;2.73;2.53;;;11.50;99.90;;;11.26;100.00;94940.28;5043371;28;20746;-76
2021/01/21 03:55:31;;;;;;;2.67;2.47;;;11.60;99.90;;;11.08;100.00;94919.28;5047354;28;20203;-76
2021/01/21 03:58:16;;;;;;;2.97;2.23;;;11.60;99.90;;;10.94;100.00;94897.72;5044294;28;20314;-77
2021/01/21 04:01:02;;;;;;;3.10;2.70;;;11.70;99.90;;;10.91;100.00;94833.47;5034549;28;20592;-75
2021/01/21 04:03:49;;;;;;;2.87;2.63;;;11.80;99.90;;;9.60;100.00;94826.81;5042322;28;20210;-76
2021/01/21 04:06:34;;;;;;;3.97;2.50;;;11.90;99.90;;;8.89;100.00;94435.84;5036945;28;20230;-77
2021/01/21 04:09:19;;;;;;;2.80;2.60;;;11.90;99.90;;;8.73;100.00;93762.31;5052046;28;20242;-76
2021/01/21 04:12:06;;;;;;;4.93;2.83;;;11.80;99.90;;;8.67;100.00;93277.38;5039013;28;20227;-78
2021/01/21 04:14:52;;;;;;;3.70;2.73;;;11.70;99.90;;;8.86;100.00;92381.44;5043109;28;20246;-76
2021/01/21 04:17:37;;;;;;;4.23;2.53;;;11.60;99.90;;;9.28;100.00;91789.25;5045696;28;20225;-76
2021/01/21 04:20:22;;;;;;;2.70;2.50;;;11.60;99.90;;;9.73;100.00;91261.19;5049716;28;20241;-76
2021/01/21 04:23:07;;;;;;;5.10;2.70;;;11.50;99.90;;;9.68;100.00;91070.53;5051165;28;20214;-76
2021/01/21 04:25:52;;;;;;;8.00;2.87;;;11.40;99.90;;;8.58;100.00;91446.66;5047496;28;20246;-76
2021/01/21 04:28:37;;;;;;;4.70;2.77;;;11.30;99.90;;;5.49;100.00;92141.56;5050144;28;20239;-75
2021/01/21 04:31:24;;;;;;;3.20;2.90;;;11.20;99.90;;;4.88;100.00;92036.16;5044607;28;20230;-77
2021/01/21 04:34:09;;;;;;;2.97;2.73;;;10.90;99.90;;;4.91;100.00;91824.19;5041376;28;20252;-77
2021/01/21 04:36:54;;;;;;;1.90;1.40;;;10.60;99.90;;;4.90;100.00;91618.06;5045586;28;20279;-75
2021/01/21 04:39:40;;;;;;;3.77;2.60;;;10.40;99.90;;;4.95;100.00;91409.44;5045165;28;20237;-76
2021/01/21 04:42:26;;;;;;;4.57;2.10;;;10.10;99.90;;;5.14;100.00;91121.59;5046053;28;20277;-76
2021/01/21 04:45:12;;;;;;;2.03;1.77;;;9.90;99.90;;;5.37;100.00;90820.28;5042992;28;20219;-75
2021/01/21 04:47:59;;;;;;;3.33;2.90;;;9.70;99.90;;;5.65;100.00;90526.41;5048765;28;20241;-76
2021/01/21 04:50:47;;;;;;;3.97;2.40;;;9.40;99.90;;;5.70;100.00;90313.88;5044682;28;20738;-76
2021/01/21 04:53:34;;;;;;;3.03;2.20;;;9.20;99.90;;;5.48;100.00;90232.44;5032908;28;20250;-74
2021/01/21 04:56:28;;;;;;;3.63;2.80;;;9.00;99.90;;;5.20;100.00;90216.88;5036346;28;20909;-74
2021/01/21 04:59:19;;;;;;;4.47;3.03;;;8.80;99.90;;;5.09;100.00;90129.25;5034033;28;20859;-74
2021/01/21 05:02:05;;;;;;;4.60;2.50;;;8.60;99.90;;;4.90;100.00;90043.03;5035688;28;20649;-74
2021/01/21 05:04:51;;;;;;;2.57;2.37;;;8.50;99.90;;;4.81;100.00;89909.19;5035518;28;20262;-74
2021/01/21 05:07:38;;;;;;;3.53;2.53;;;8.30;99.90;;;4.93;100.00;89775.84;5035587;28;20199;-74
2021/01/21 05:10:24;;;;;;;2.50;2.23;;;8.20;99.90;;;5.17;100.00;89548.13;5038387;28;20756;-75
2021/01/21 05:13:09;;;;;;;3.50;2.57;;;8.10;99.90;;;5.23;100.00;89449.81;5034884;28;20724;-76
2021/01/21 05:15:54;;;;;;;3.10;2.63;;;8.00;99.90;;;5.18;100.00;89327.19;5043257;28;20206;-76
2021/01/21 05:18:41;;;;;;;3.67;3.00;;;7.90;99.90;;;5.03;100.00;89223.47;5052017;28;20246;-76
2021/01/21 05:21:27;;;;;;;5.43;3.30;;;7.80;99.90;;;4.95;100.00;89155.19;5048987;28;20580;-74
2021/01/21 05:24:12;;;;;;;4.13;3.00;;;7.70;99.90;;;4.97;100.00;89065.41;5045832;28;20562;-74
2021/01/21 05:26:57;;;;;;;2.90;2.70;;;7.60;99.90;;;5.07;100.00;88924.53;5049960;28;20206;-74
2021/01/21 05:29:45;;;;;;;5.90;3.50;;;7.60;99.90;;;5.10;100.00;88801.22;5050858;28;20257;-76
2021/01/21 05:32:30;;;;;;;4.83;2.83;;;7.50;99.90;;;5.14;100.00;88687.09;5042495;28;20226;-76
2021/01/21 05:35:16;;;;;;;2.93;2.50;;;7.40;99.90;;;5.16;100.00;88610.09;5036744;28;20212;-76
2021/01/21 05:38:02;;;;;;;6.67;3.03;;;7.40;99.90;;;5.26;100.00;88495.41;5052176;28;20257;-76
2021/01/21 05:40:48;;;;;;;4.17;2.60;;;7.30;99.90;;;5.30;100.00;88395.03;5044310;28;20318;-76
2021/01/21 05:43:36;;;;;;;5.20;2.67;;;7.30;99.90;;;5.37;100.00;88298.09;5040903;28;20276;-76
2021/01/21 05:46:21;;;;;;;4.33;2.53;;;7.20;99.90;;;5.48;100.00;88219.13;5044542;28;20254;-75
2021/01/21 05:49:06;;;;;;;5.13;2.60;;;7.20;99.90;;;5.51;100.00;88126.44;5040228;28;20746;-75
2021/01/21 05:51:53;;;;;;;5.37;2.77;;;7.10;99.90;;;5.56;100.00;88070.66;5040605;28;20303;-76
2021/01/21 05:54:40;;;;;;;7.03;3.00;;;7.10;99.90;;;5.61;100.00;87990.41;5044016;28;20279;-76
2021/01/21 05:57:26;;;;;;;4.17;2.23;;;7.00;99.90;;;5.65;100.00;87952.84;5044546;28;20258;-76
2021/01/21 06:00:15;;;;;;;3.30;2.60;;;7.00;99.90;;;5.71;100.00;87900.38;5039290;28;20284;-75
2021/01/21 06:03:00;;;;;;;4.20;2.50;;;7.00;99.90;;;5.71;100.00;87866.38;5043712;28;20250;-75
2021/01/21 06:05:50;;;;;;;4.53;2.70;;;7.00;99.90;;;5.73;100.00;87830.97;5042464;28;20235;-75
2021/01/21 06:08:39;;;;;;;7.20;2.90;;;7.00;99.90;;;5.76;100.00;87802.91;5043138;28;20210;-76
2021/01/21 06:11:25;;;;;;;7.90;3.10;;;7.10;99.90;;;5.65;100.00;87824.22;5044388;28;20294;-75
2021/01/21 06:14:11;;;;;;;3.83;3.20;;;7.10;99.90;;;5.61;100.00;87806.97;5046090;28;20479;-76
2021/01/21 06:16:57;;;;;;;6.07;3.00;;;7.10;99.90;;;5.45;100.00;87832.56;5049596;28;20259;-76
2021/01/21 06:19:42;;;;;;;12.20;3.53;;;7.10;99.90;;;5.52;100.00;87785.19;5045017;28;20262;-75
2021/01/21 06:22:31;;;;;;;9.37;3.07;;;7.10;99.90;;;5.31;100.00;87841.72;5044050;28;20211;-75
2021/01/21 06:25:19;;;;;;;7.23;3.67;;;7.10;99.90;;;5.27;100.00;87826.31;5045752;28;20632;-76
2021/01/21 06:28:07;;;;;;;5.57;3.27;;;7.10;99.90;;;5.28;100.00;87845.69;5043889;28;20570;-75
2021/01/21 06:30:56;;;;;;;7.67;3.10;;;7.10;99.90;;;5.36;100.00;87783.41;5040389;28;20250;-77
2021/01/21 06:33:45;;;;;;;8.70;3.00;;;7.00;99.90;;;5.31;100.00;87826.38;5050534;28;20223;-77
2021/01/21 06:36:33;;;;;;;7.33;2.63;;;7.00;99.90;;;5.27;100.00;87821.94;5044865;28;20203;-75
2021/01/21 06:39:33;;;;;;;3.20;2.70;;;7.00;99.90;;;5.33;100.00;87771.28;5045412;28;20783;-76
2021/01/21 06:42:27;;;;;;;6.90;3.17;;;7.00;99.90;;;5.22;100.00;87788.94;5044946;28;20238;-76
2021/01/21 06:45:15;;;;;;;7.20;2.80;;;6.90;99.90;;;5.02;100.00;87841.78;5040330;28;20231;-76
2021/01/21 06:48:01;;;;;;;6.73;3.20;;;6.90;99.90;;;5.22;100.00;87737.06;5049875;28;20215;-76
2021/01/21 06:50:47;;;;;;;7.97;2.90;;;6.90;99.90;;;5.22;100.00;87729.41;5039317;28;20235;-76
2021/01/21 06:53:33;;;;;;;4.97;3.20;;;6.90;99.90;;;5.22;100.00;87702.03;5039821;28;20211;-76
2021/01/21 06:56:19;;;;;;;7.33;3.40;;;6.80;99.90;;;5.05;100.00;87769.56;5036617;28;20246;-76
2021/01/21 06:59:04;;;;;;;12.40;4.07;;;6.80;99.90;;;5.00;100.00;87782.59;5046990;28;20238;-77
2021/01/21 07:01:51;;;;;;;5.20;2.97;;;6.70;99.90;;;4.90;100.00;87814.50;5037815;28;20590;-77
2021/01/21 07:04:36;;;;;;;3.73;3.33;;;6.80;99.90;;;5.01;100.00;87778.97;5046244;28;20290;-77
2021/01/21 07:07:22;;;;;;;8.60;3.83;;;6.70;99.90;;;4.68;100.00;87897.50;5041599;28;20265;-76
2021/01/21 07:10:10;;;;;;;8.43;3.33;;;6.70;99.90;;;4.61;100.00;87943.28;5038927;28;20207;-75
2021/01/21 07:12:58;;;;;;;8.13;3.60;;;6.60;99.90;;;4.69;100.00;87905.91;5037727;28;20207;-76
2021/01/21 07:15:46;;;;;;;7.83;3.07;;;6.60;99.90;;;4.51;100.00;87961.59;5047552;28;20229;-76
2021/01/21 07:18:34;;;;;;;5.77;2.70;;;6.60;99.90;;;4.45;100.00;88328.00;5048314;28;20248;-75
2021/01/21 07:21:24;;;;;;;7.73;3.27;;;6.50;99.90;;;4.34;100.00;88401.66;5045041;28;20250;-76
2021/01/21 07:24:12;;;;;;;10.17;4.17;;;6.50;99.90;;;4.63;100.00;88285.19;5031798;28;20338;-78
2021/01/21 07:26:57;;;;;;;7.67;2.87;;;6.40;99.90;;;4.57;100.00;88310.91;5038898;28;20270;-77
2021/01/21 07:29:42;;;;;;;7.03;3.40;;;6.40;99.90;;;4.79;100.00;88199.22;5034793;28;20230;-76
2021/01/21 07:32:28;;;;;;;9.03;3.50;;;6.40;99.90;;;4.58;100.00;88293.81;5036207;28;20604;-77
2021/01/21 07:35:38;;;;;;;5.77;2.60;;;6.30;99.90;;;4.62;100.00;88311.78;5039161;28;20203;-76
2021/01/21 07:38:49;;;;;;;8.70;3.30;;;6.30;99.90;;;4.47;100.00;88376.94;5034279;28;20270;-76
2021/01/21 07:41:56;;;;;;;6.30;2.83;;;6.20;99.90;;;4.66;100.00;88289.66;5040169;28;20251;-75
2021/01/21 07:45:00;;;;;;;9.87;3.50;;;6.20;99.90;;;4.55;100.00;88335.28;5044133;28;20294;-75
2021/01/21 07:47:47;;;;;;;10.60;3.77;;;6.20;99.90;;;4.50;100.00;88371.22;5044860;28;20303;-77
2021/01/21 07:50:35;;;;;;;9.57;2.80;;;6.10;99.90;;;4.39;100.00;88424.47;5034264;28;20234;-76
2021/01/21 07:53:24;;;;;;;11.10;3.33;;;6.10;99.90;;;4.46;100.00;88390.78;5037602;28;20691;-76
2021/01/21 07:56:10;;;;;;;8.37;2.73;;;6.10;99.90;;;4.39;100.00;88434.69;5036514;28;20707;-76
2021/01/21 07:58:59;;;;;;;7.73;3.03;;;6.00;99.90;;;4.51;100.00;88370.91;5043818;28;20198;-76
2021/01/21 08:01:56;;;;;;;10.17;3.53;;;6.00;99.90;;;4.56;100.00;88364.84;5047658;28;20266;-75
2021/01/21 08:04:58;;;;;;;8.27;2.70;;;6.00;99.90;;;4.71;100.00;88297.88;5059168;28;20211;-75
2021/01/21 08:07:47;;;;;;;8.13;3.03;;;6.00;99.90;;;4.60;100.00;88362.44;5060843;28;20271;-75
2021/01/21 08:10:35;;;;;;;3.70;2.30;;;6.00;99.90;;;4.59;100.00;88368.59;5053381;28;20735;-76
2021/01/21 08:13:20;;;;;;;7.53;2.53;;;5.90;99.90;;;4.73;100.00;88289.91;5046712;28;20211;-76
2021/01/21 08:16:11;;;;;;;5.80;2.30;;;6.00;99.90;;;4.60;100.00;88340.19;5037219;28;20282;-75
2021/01/21 08:19:01;;;;;;;6.57;2.67;;;6.00;99.90;;;4.60;100.00;88342.75;5034789;28;20573;-76
2021/01/21 08:21:47;;;;;;;9.40;2.80;;;6.00;99.90;;;4.79;100.00;88260.53;5038440;28;20230;-76
2021/01/21 08:24:32;;;;;;;10.47;3.10;;;6.00;99.90;;;4.72;100.00;88288.41;5046202;28;20206;-75
2021/01/21 08:27:18;;;;;;;6.17;2.67;;;6.00;99.90;;;4.57;100.00;88328.78;5042348;28;20292;-75
2021/01/21 08:30:17;;;;;;;15.53;3.30;;;6.00;99.90;;;4.69;100.00;88273.72;5044559;28;20756;-75
2021/01/21 08:33:08;;;;;;;8.33;2.40;;;6.00;99.90;;;4.82;100.00;88203.69;5043745;28;20222;-75
2021/01/21 08:35:57;;;;;;;9.97;3.07;;;6.00;99.90;;;4.97;100.00;88104.47;5039962;28;20245;-75
2021/01/21 08:38:45;;;;;;;8.93;3.00;;;6.00;99.90;;;5.10;100.00;88030.00;5045566;28;20687;-75
2021/01/21 08:41:31;;;;;;;7.97;3.93;;;6.00;99.90;;;5.24;100.00;87963.19;5041995;28;20362;-75
2021/01/21 08:44:18;;;;;;;14.33;4.20;;;6.10;99.90;;;5.29;100.00;87941.03;5032978;28;20275;-75
2021/01/21 08:47:03;;;;;;;6.37;2.60;;;6.10;99.90;;;5.42;100.00;87911.75;5034108;28;20273;-75
2021/01/21 08:49:52;;;;;;;6.60;3.43;;;6.10;99.90;;;5.31;100.00;87961.88;5028860;28;20238;-75
2021/01/21 08:52:55;;;;;;;8.20;2.30;;;6.20;99.90;;;5.15;100.00;88034.16;5031571;28;20214;-75
2021/01/21 08:55:51;;;;;;;9.10;3.13;;;6.20;99.90;;;5.21;100.00;88035.44;5033274;28;20261;-75
2021/01/21 08:58:36;;;;;;;8.87;3.47;;;6.30;99.90;;;5.18;100.00;88089.75;5030079;28;20703;-75
2021/01/21 09:01:22;;;;;;;8.20;2.67;;;6.30;99.90;;;5.20;100.00;88128.53;5034644;28;20262;-75
2021/01/21 09:04:23;;;;;;;9.90;3.10;;;6.40;99.90;;;5.31;100.00;88139.03;5032204;28;20211;-75
2021/01/21 09:07:10;;;;;;;6.30;2.93;;;6.40;99.90;;;5.42;100.00;88159.81;5040203;28;20273;-75
2021/01/21 09:09:55;;;;;;;9.33;3.37;;;6.40;99.90;;;6.06;100.00;87993.69;5043715;28;20204;-75
2021/01/21 09:12:40;;;;;;;10.57;3.07;;;6.50;99.90;;;6.38;100.00;87950.88;5032475;28;20226;-75
2021/01/21 09:15:25;;;;;;;10.27;3.20;;;6.50;99.90;;;6.41;100.00;88093.66;5034092;28;20207;-76
2021/01/21 09:18:11;;;;;;;11.63;3.37;;;6.60;99.90;;;7.13;100.00;87973.97;5038836;28;20234;-76
2021/01/21 09:21:14;;;;;;;9.40;2.97;;;6.70;99.90;;;7.45;100.00;88079.75;5038714;28;20355;-76
2021/01/21 09:24:08;;;;;;;9.90;3.07;;;6.90;99.90;;;7.89;100.00;88248.19;5040863;28;20527;-76
2021/01/21 09:27:14;;;;;;;8.77;3.00;;;7.10;99.90;;;7.90;100.00;88709.34;5036375;28;20265;-76
2021/01/21 09:30:01;;;;;;;13.20;3.43;;;7.40;99.90;;;8.23;100.00;88932.66;5031373;28;20304;-76
2021/01/21 09:32:46;;;;;;;7.33;2.73;;;7.70;99.90;;;7.76;100.00;89430.41;5038697;28;20282;-76
2021/01/21 09:35:33;;;;;;;13.30;3.80;;;8.00;99.90;;;7.26;100.00;90011.53;5048229;28;20710;-76
2021/01/21 09:38:18;;;;;;;11.80;2.87;;;8.30;99.90;;;7.27;100.00;90280.69;5049048;28;20334;-76
2021/01/21 09:41:03;;;;;;;17.70;4.37;;;8.50;99.90;;;7.64;100.00;90343.25;5048025;28;20273;-75
2021/01/21 09:43:48;;;;;;;10.47;3.50;;;8.70;99.90;;;7.67;100.00;90591.81;5047334;28;20257;-74
2021/01/21 09:46:33;;;;;;;10.53;3.20;;;8.80;99.90;;;7.24;100.00;90951.09;5028275;28;20620;-74
2021/01/21 09:49:18;;;;;;;7.83;3.30;;;9.00;99.90;;;7.64;100.00;90928.78;5039882;28;20284;-75
2021/01/21 09:52:13;;;;;;;7.87;3.60;;;9.10;99.90;;;8.32;100.00;90875.06;5046180;28;20730;-74
2021/01/21 09:55:24;;;;;;;9.57;3.63;;;9.20;99.90;;;8.35;100.00;91168.41;5034713;28;20219;-75
2021/01/21 09:58:14;;;;;;;5.53;2.43;;;9.40;99.90;;;7.72;100.00;91462.53;5047536;28;20249;-75
2021/01/21 10:01:05;;;;;;;11.43;3.07;;;9.50;99.90;;;7.72;100.00;91521.63;5045190;28;22029;-74
2021/01/21 10:03:52;;;;;;;12.73;3.13;;;9.70;99.90;;;9.11;100.00;91042.81;5040996;28;20243;-75
2021/01/21 10:06:37;;;;;;;11.00;3.27;;;9.80;99.90;;;9.37;100.00;91101.78;5044015;28;20217;-75
2021/01/21 10:09:23;;;;;;;8.93;2.83;;;9.90;99.90;;;9.26;100.00;91301.97;5031727;28;20296;-75
2021/01/21 10:12:09;;;;;;;4.57;2.17;;;10.10;99.90;;;8.84;100.00;91670.50;5044399;28;20253;-75
2021/01/21 10:14:58;;;;;;;7.47;2.80;;;10.30;99.90;;;8.00;100.00;91972.00;5045123;28;20239;-75
2021/01/21 10:17:45;;;;;;;7.30;2.47;;;10.50;99.90;;;7.48;100.00;92257.59;5039850;28;20253;-75
2021/01/21 10:20:39;;;;;;;9.67;3.43;;;10.60;99.90;;;7.72;100.00;92181.91;5041767;28;20366;-76
2021/01/21 10:23:27;;;;;;;7.43;3.20;;;10.70;99.90;;;8.21;100.00;92050.09;5039336;28;20227;-75
2021/01/21 10:26:13;;;;;;;6.53;2.77;;;10.70;99.90;;;8.28;100.00;92163.03;5047861;28;20238;-75
2021/01/21 10:28:58;;;;;;;10.37;2.90;;;10.70;99.90;;;8.51;100.00;92267.53;5036375;28;20806;-75
2021/01/21 10:31:46;;;;;;;10.00;2.70;;;10.80;99.90;;;9.36;100.00;92089.38;5036762;28;20230;-75
2021/01/21 10:34:32;;;;;;;5.50;2.77;;;10.90;99.90;;;9.24;100.00;92230.44;5042112;28;20293;-74
2021/01/21 10:37:19;;;;;;;6.30;2.27;;;10.90;99.90;;;8.91;100.00;92252.78;5046183;28;20249;-75
2021/01/21 10:40:08;;;;;;;4.90;2.70;;;11.00;99.90;;;8.24;100.00;92516.88;5037339;28;20230;-74
2021/01/21 10:43:00;;;;;;;9.40;2.67;;;11.10;99.90;;;7.85;100.00;92660.59;5041204;28;20290;-75
2021/01/21 10:45:51;;;;;;;7.00;2.80;;;11.20;99.90;;;7.83;100.00;92650.56;5029419;28;20306;-76
2021/01/21 10:48:36;;;;;;;5.33;2.27;;;11.20;99.90;;;8.01;100.00;92628.28;5030819;28;20391;-75
2021/01/21 10:51:21;;;;;;;8.10;2.40;;;11.20;99.90;;;8.13;100.00;92512.56;5040147;28;20239;-75
2021/01/21 10:54:07;;;;;;;4.80;2.07;;;11.20;99.90;;;8.05;100.00;92449.44;5043867;28;20825;-74
2021/01/21 10:56:54;;;;;;;8.30;2.60;;;11.10;99.90;;;7.99;100.00;92357.81;5043920;28;20219;-74
2021/01/21 10:59:39;;;;;;;8.93;2.90;;;11.10;99.90;;;7.84;100.00;92435.44;5047244;28;20709;-74
2021/01/21 11:02:24;;;;;;;8.90;2.83;;;11.10;99.90;;;7.62;100.00;92615.16;5045682;28;20250;-74
2021/01/21 11:05:10;;;;;;;9.83;2.93;;;11.10;99.90;;;7.55;100.00;92659.72;5038404;28;20202;-74
2021/01/21 11:07:55;;;;;;;8.53;2.70;;;11.00;99.90;;;7.48;100.00;92665.97;5044447;28;20764;-74
2021/01/21 11:10:41;;;;;;;9.33;2.50;;;10.90;99.90;;;7.54;100.00;92688.22;5049858;28;20323;-75
2021/01/21 11:13:28;;;;;;;3.77;2.30;;;10.90;99.90;;;7.66;100.00;92640.19;5049051;28;20210;-75
2021/01/21 11:16:13;;;;;;;6.30;2.30;;;10.80;99.90;;;7.66;100.00;92604.22;5036560;28;20218;-75
2021/01/21 11:18:58;;;;;;;8.73;2.50;;;10.70;99.90;;;7.58;100.00;92697.03;5045877;28;20230;-75
2021/01/21 11:21:43;;;;;;;6.67;2.60;;;10.60;99.90;;;7.72;100.00;92644.44;5048030;28;20407;-75
2021/01/21 11:24:28;;;;;;;6.27;2.93;;;10.60;99.90;;;7.88;100.00;92688.44;5048796;28;20237;-75
2021/01/21 11:27:14;;;;;;;6.60;2.13;;;10.50;99.90;;;7.83;100.00;92753.38;5049124;28;20253;-75
2021/01/21 11:29:59;;;;;;;9.87;2.77;;;10.50;99.90;;;7.81;100.00;92775.94;5047736;28;20269;-75
2021/01/21 11:32:45;;;;;;;7.73;2.97;;;10.40;99.90;;;7.73;100.00;92861.84;5038976;28;20214;-75
2021/01/21 11:35:30;;;;;;;7.83;2.73;;;10.40;99.90;;;7.65;100.00;92921.25;5051595;28;20245;-75
2021/01/21 11:38:15;;;;;;;8.40;3.20;;;10.30;99.90;;;7.53;100.00;93000.84;5050900;28;20214;-75
2021/01/21 11:41:00;;;;;;;6.07;2.80;;;10.30;99.90;;;7.49;100.00;93032.34;5042906;28;20595;-75
2021/01/21 11:43:45;;;;;;;9.70;3.43;;;10.20;99.90;;;7.45;100.00;93002.94;5045261;28;20202;-75
2021/01/21 11:46:31;;;;;;;4.33;2.60;;;10.20;99.90;;;7.34;100.00;92971.03;5037387;28;20230;-75
2021/01/21 11:49:16;;;;;;;6.63;2.77;;;10.10;99.90;;;7.27;100.00;92945.41;5044637;28;20208;-75